sensor_id;sensor_type;location;lat;lon;timestamp;P1;durP1;ratioP1;P2;durP2;ratioP2
3299;SDS011;1662;49.310;8.134;2023-11-19T00:00:10;0.60;;;0.60;;
3299;SDS011;1662;49.310;8.134;2023-11-19T00:02:37;0.60;;;0.60;;
3299;SDS011;1662;49.310;8.134;2023-11-19T00:05:04;0.87;;;0.80;;
3299;SDS011;1662;49.310;8.134;2023-11-19T00:07:31;1.10;;;1.00;;
3299;SDS011;1662;49.310;8.134;2023-11-19T00:09:57;1.17;;;0.70;;
3299;SDS011;1662;49.310;8.134;2023-11-19T00:12:22;0.80;;;0.80;;
3299;SDS011;1662;49.310;8.134;2023-11-19T00:14:49;0.70;;;0.70;;
3299;SDS011;1662;49.310;8.134;2023-11-19T00:17:20;0.60;;;0.60;;
3299;SDS011;1662;49.310;8.134;2023-11-19T00:19:46;0.63;;;0.63;;
3299;SDS011;1662;49.310;8.134;2023-11-19T00:22:11;0.80;;;0.80;;
3299;SDS011;1662;49.310;8.134;2023-11-19T00:24:37;0.60;;;0.60;;
3299;SDS011;1662;49.310;8.134;2023-11-19T00:27:05;0.70;;;0.70;;
3299;SDS011;1662;49.310;8.134;2023-11-19T00:29:32;0.80;;;0.70;;
3299;SDS011;1662;49.310;8.134;2023-11-19T00:31:58;0.70;;;0.70;;
3299;SDS011;1662;49.310;8.134;2023-11-19T00:34:24;0.67;;;0.67;;
3299;SDS011;1662;49.310;8.134;2023-11-19T00:36:49;0.60;;;0.60;;
3299;SDS011;1662;49.310;8.134;2023-11-19T00:39:15;0.60;;;0.60;;
3299;SDS011;1662;49.310;8.134;2023-11-19T00:41:41;0.60;;;0.60;;
3299;SDS011;1662;49.310;8.134;2023-11-19T00:44:06;0.73;;;0.60;;
3299;SDS011;1662;49.310;8.134;2023-11-19T00:46:32;0.60;;;0.60;;
3299;SDS011;1662;49.310;8.134;2023-11-19T00:48:58;0.57;;;0.57;;
3299;SDS011;1662;49.310;8.134;2023-11-19T00:51:27;0.60;;;0.60;;
3299;SDS011;1662;49.310;8.134;2023-11-19T00:53:52;0.60;;;0.60;;
3299;SDS011;1662;49.310;8.134;2023-11-19T00:56:20;0.50;;;0.50;;
3299;SDS011;1662;49.310;8.134;2023-11-19T00:58:46;0.60;;;0.60;;
3299;SDS011;1662;49.310;8.134;2023-11-19T01:01:12;0.60;;;0.60;;
3299;SDS011;1662;49.310;8.134;2023-11-19T01:03:38;1.63;;;0.60;;
3299;SDS011;1662;49.310;8.134;2023-11-19T01:06:04;1.40;;;0.70;;
3299;SDS011;1662;49.310;8.134;2023-11-19T01:08:30;0.60;;;0.60;;
3299;SDS011;1662;49.310;8.134;2023-11-19T01:10:55;0.50;;;0.50;;
3299;SDS011;1662;49.310;8.134;2023-11-19T01:13:21;0.60;;;0.60;;
3299;SDS011;1662;49.310;8.134;2023-11-19T01:15:47;0.60;;;0.60;;
3299;SDS011;1662;49.310;8.134;2023-11-19T01:18:13;0.70;;;0.63;;
3299;SDS011;1662;49.310;8.134;2023-11-19T01:20:39;0.60;;;0.60;;
3299;SDS011;1662;49.310;8.134;2023-11-19T01:23:04;0.57;;;0.57;;
3299;SDS011;1662;49.310;8.134;2023-11-19T01:25:30;2.40;;;0.70;;
3299;SDS011;1662;49.310;8.134;2023-11-19T01:27:59;0.60;;;0.60;;
3299;SDS011;1662;49.310;8.134;2023-11-19T01:30:24;0.60;;;0.60;;
3299;SDS011;1662;49.310;8.134;2023-11-19T01:32:50;0.60;;;0.60;;
3299;SDS011;1662;49.310;8.134;2023-11-19T01:35:16;0.60;;;0.60;;
3299;SDS011;1662;49.310;8.134;2023-11-19T01:37:41;0.50;;;0.50;;
3299;SDS011;1662;49.310;8.134;2023-11-19T01:40:07;0.60;;;0.60;;
3299;SDS011;1662;49.310;8.134;2023-11-19T01:42:38;0.60;;;0.60;;
3299;SDS011;1662;49.310;8.134;2023-11-19T01:45:05;0.50;;;0.50;;
3299;SDS011;1662;49.310;8.134;2023-11-19T01:47:34;0.60;;;0.60;;
3299;SDS011;1662;49.310;8.134;2023-11-19T01:50:01;0.57;;;0.57;;
3299;SDS011;1662;49.310;8.134;2023-11-19T01:52:31;0.50;;;0.50;;
3299;SDS011;1662;49.310;8.134;2023-11-19T01:54:59;0.50;;;0.50;;
3299;SDS011;1662;49.310;8.134;2023-11-19T01:57:26;0.57;;;0.57;;
3299;SDS011;1662;49.310;8.134;2023-11-19T01:59:51;0.60;;;0.60;;
3299;SDS011;1662;49.310;8.134;2023-11-19T02:02:20;0.57;;;0.57;;
3299;SDS011;1662;49.310;8.134;2023-11-19T02:04:49;0.60;;;0.60;;
3299;SDS011;1662;49.310;8.134;2023-11-19T02:07:16;0.60;;;0.60;;
3299;SDS011;1662;49.310;8.134;2023-11-19T02:09:45;0.50;;;0.50;;
3299;SDS011;1662;49.310;8.134;2023-11-19T02:12:11;0.60;;;0.60;;
3299;SDS011;1662;49.310;8.134;2023-11-19T02:14:40;0.60;;;0.60;;
3299;SDS011;1662;49.310;8.134;2023-11-19T02:17:05;0.50;;;0.50;;
3299;SDS011;1662;49.310;8.134;2023-11-19T02:19:31;0.60;;;0.60;;
3299;SDS011;1662;49.310;8.134;2023-11-19T02:21:59;0.60;;;0.60;;
3299;SDS011;1662;49.310;8.134;2023-11-19T02:24:25;0.60;;;0.60;;
3299;SDS011;1662;49.310;8.134;2023-11-19T02:27:02;0.60;;;0.60;;
3299;SDS011;1662;49.310;8.134;2023-11-19T02:29:33;1.23;;;0.60;;
3299;SDS011;1662;49.310;8.134;2023-11-19T02:32:00;0.60;;;0.60;;
3299;SDS011;1662;49.310;8.134;2023-11-19T02:34:28;0.60;;;0.60;;
3299;SDS011;1662;49.310;8.134;2023-11-19T02:36:54;0.60;;;0.60;;
3299;SDS011;1662;49.310;8.134;2023-11-19T02:39:22;0.60;;;0.60;;
3299;SDS011;1662;49.310;8.134;2023-11-19T02:41:48;0.70;;;0.70;;
3299;SDS011;1662;49.310;8.134;2023-11-19T02:44:17;0.60;;;0.60;;
3299;SDS011;1662;49.310;8.134;2023-11-19T02:46:43;0.60;;;0.60;;
3299;SDS011;1662;49.310;8.134;2023-11-19T02:49:09;0.60;;;0.60;;
3299;SDS011;1662;49.310;8.134;2023-11-19T02:51:34;0.60;;;0.60;;
3299;SDS011;1662;49.310;8.134;2023-11-19T02:54:00;0.60;;;0.60;;
3299;SDS011;1662;49.310;8.134;2023-11-19T02:56:28;1.47;;;1.00;;
3299;SDS011;1662;49.310;8.134;2023-11-19T02:58:59;0.60;;;0.60;;
3299;SDS011;1662;49.310;8.134;2023-11-19T03:01:28;0.60;;;0.60;;
3299;SDS011;1662;49.310;8.134;2023-11-19T03:03:59;0.83;;;0.83;;
3299;SDS011;1662;49.310;8.134;2023-11-19T03:06:26;0.60;;;0.60;;
3299;SDS011;1662;49.310;8.134;2023-11-19T03:08:55;0.70;;;0.60;;
3299;SDS011;1662;49.310;8.134;2023-11-19T03:11:20;0.60;;;0.60;;
3299;SDS011;1662;49.310;8.134;2023-11-19T03:13:46;0.60;;;0.60;;
3299;SDS011;1662;49.310;8.134;2023-11-19T03:16:12;0.60;;;0.60;;
3299;SDS011;1662;49.310;8.134;2023-11-19T03:18:38;0.70;;;0.70;;
3299;SDS011;1662;49.310;8.134;2023-11-19T03:21:05;0.60;;;0.60;;
3299;SDS011;1662;49.310;8.134;2023-11-19T03:23:32;0.73;;;0.73;;
3299;SDS011;1662;49.310;8.134;2023-11-19T03:25:58;0.60;;;0.60;;
3299;SDS011;1662;49.310;8.134;2023-11-19T03:28:24;0.60;;;0.60;;
3299;SDS011;1662;49.310;8.134;2023-11-19T03:30:49;0.60;;;0.60;;
3299;SDS011;1662;49.310;8.134;2023-11-19T03:33:15;0.60;;;0.60;;
3299;SDS011;1662;49.310;8.134;2023-11-19T03:35:41;3.20;;;0.90;;
3299;SDS011;1662;49.310;8.134;2023-11-19T03:38:06;0.60;;;0.60;;
3299;SDS011;1662;49.310;8.134;2023-11-19T03:40:32;5.60;;;1.47;;
3299;SDS011;1662;49.310;8.134;2023-11-19T03:42:58;0.60;;;0.60;;
3299;SDS011;1662;49.310;8.134;2023-11-19T03:45:23;0.60;;;0.60;;
3299;SDS011;1662;49.310;8.134;2023-11-19T03:47:50;0.70;;;0.70;;
3299;SDS011;1662;49.310;8.134;2023-11-19T03:50:15;0.63;;;0.63;;
3299;SDS011;1662;49.310;8.134;2023-11-19T03:52:45;1.43;;;0.80;;
3299;SDS011;1662;49.310;8.134;2023-11-19T03:55:14;1.87;;;0.73;;
3299;SDS011;1662;49.310;8.134;2023-11-19T03:57:43;0.70;;;0.70;;
3299;SDS011;1662;49.310;8.134;2023-11-19T04:00:09;0.80;;;0.80;;
3299;SDS011;1662;49.310;8.134;2023-11-19T04:02:35;1.47;;;1.20;;
3299;SDS011;1662;49.310;8.134;2023-11-19T04:05:01;0.80;;;0.80;;
3299;SDS011;1662;49.310;8.134;2023-11-19T04:07:28;0.70;;;0.70;;
3299;SDS011;1662;49.310;8.134;2023-11-19T04:09:54;0.90;;;0.90;;
3299;SDS011;1662;49.310;8.134;2023-11-19T04:12:19;0.97;;;0.97;;
3299;SDS011;1662;49.310;8.134;2023-11-19T04:14:45;1.30;;;1.10;;
3299;SDS011;1662;49.310;8.134;2023-11-19T04:17:10;0.80;;;0.80;;
3299;SDS011;1662;49.310;8.134;2023-11-19T04:19:36;4.47;;;1.40;;
3299;SDS011;1662;49.310;8.134;2023-11-19T04:22:02;0.80;;;0.80;;
3299;SDS011;1662;49.310;8.134;2023-11-19T04:24:29;1.53;;;1.10;;
3299;SDS011;1662;49.310;8.134;2023-11-19T04:26:55;1.10;;;1.10;;
3299;SDS011;1662;49.310;8.134;2023-11-19T04:29:20;0.90;;;0.90;;
3299;SDS011;1662;49.310;8.134;2023-11-19T04:31:46;1.10;;;1.10;;
3299;SDS011;1662;49.310;8.134;2023-11-19T04:34:11;1.20;;;1.10;;
3299;SDS011;1662;49.310;8.134;2023-11-19T04:36:40;1.00;;;1.00;;
3299;SDS011;1662;49.310;8.134;2023-11-19T04:39:05;1.33;;;1.33;;
3299;SDS011;1662;49.310;8.134;2023-11-19T04:41:46;1.77;;;1.67;;
3299;SDS011;1662;49.310;8.134;2023-11-19T04:44:13;1.10;;;1.10;;
3299;SDS011;1662;49.310;8.134;2023-11-19T04:46:38;2.00;;;1.20;;
3299;SDS011;1662;49.310;8.134;2023-11-19T04:49:04;1.20;;;1.10;;
3299;SDS011;1662;49.310;8.134;2023-11-19T04:51:30;1.00;;;1.00;;
3299;SDS011;1662;49.310;8.134;2023-11-19T04:53:58;1.20;;;1.10;;
3299;SDS011;1662;49.310;8.134;2023-11-19T04:56:23;1.90;;;1.30;;
3299;SDS011;1662;49.310;8.134;2023-11-19T04:58:49;1.20;;;1.20;;
3299;SDS011;1662;49.310;8.134;2023-11-19T05:01:17;1.30;;;1.20;;
3299;SDS011;1662;49.310;8.134;2023-11-19T05:03:43;1.33;;;1.33;;
3299;SDS011;1662;49.310;8.134;2023-11-19T05:06:09;1.20;;;1.10;;
3299;SDS011;1662;49.310;8.134;2023-11-19T05:08:35;1.77;;;1.67;;
3299;SDS011;1662;49.310;8.134;2023-11-19T05:11:00;1.67;;;1.13;;
3299;SDS011;1662;49.310;8.134;2023-11-19T05:13:26;3.07;;;1.43;;
3299;SDS011;1662;49.310;8.134;2023-11-19T05:15:52;1.10;;;1.10;;
3299;SDS011;1662;49.310;8.134;2023-11-19T05:18:17;1.10;;;1.10;;
3299;SDS011;1662;49.310;8.134;2023-11-19T05:20:45;1.50;;;1.40;;
3299;SDS011;1662;49.310;8.134;2023-11-19T05:23:11;1.80;;;1.70;;
3299;SDS011;1662;49.310;8.134;2023-11-19T05:25:39;1.60;;;1.50;;
3299;SDS011;1662;49.310;8.134;2023-11-19T05:28:04;1.43;;;1.33;;
3299;SDS011;1662;49.310;8.134;2023-11-19T05:30:30;1.40;;;1.40;;
3299;SDS011;1662;49.310;8.134;2023-11-19T05:32:55;1.47;;;1.37;;
3299;SDS011;1662;49.310;8.134;2023-11-19T05:35:21;1.30;;;1.30;;
3299;SDS011;1662;49.310;8.134;2023-11-19T05:37:47;1.40;;;1.30;;
3299;SDS011;1662;49.310;8.134;2023-11-19T05:40:12;1.60;;;1.50;;
3299;SDS011;1662;49.310;8.134;2023-11-19T05:42:43;1.57;;;1.47;;
3299;SDS011;1662;49.310;8.134;2023-11-19T05:45:10;1.20;;;1.20;;
3299;SDS011;1662;49.310;8.134;2023-11-19T05:47:38;1.30;;;1.30;;
3299;SDS011;1662;49.310;8.134;2023-11-19T05:50:03;2.00;;;1.90;;
3299;SDS011;1662;49.310;8.134;2023-11-19T05:52:31;1.87;;;1.77;;
3299;SDS011;1662;49.310;8.134;2023-11-19T05:55:00;1.70;;;1.60;;
3299;SDS011;1662;49.310;8.134;2023-11-19T05:57:29;1.67;;;1.57;;
3299;SDS011;1662;49.310;8.134;2023-11-19T05:59:54;2.90;;;1.50;;
3299;SDS011;1662;49.310;8.134;2023-11-19T06:02:20;1.40;;;1.30;;
3299;SDS011;1662;49.310;8.134;2023-11-19T06:04:48;2.17;;;1.50;;
3299;SDS011;1662;49.310;8.134;2023-11-19T06:07:14;1.20;;;1.20;;
3299;SDS011;1662;49.310;8.134;2023-11-19T06:09:40;1.40;;;1.30;;
3299;SDS011;1662;49.310;8.134;2023-11-19T06:12:06;2.30;;;1.33;;
3299;SDS011;1662;49.310;8.134;2023-11-19T06:14:32;1.60;;;1.50;;
3299;SDS011;1662;49.310;8.134;2023-11-19T06:17:00;1.83;;;1.20;;
3299;SDS011;1662;49.310;8.134;2023-11-19T06:19:26;1.53;;;1.43;;
3299;SDS011;1662;49.310;8.134;2023-11-19T06:21:52;2.50;;;1.47;;
3299;SDS011;1662;49.310;8.134;2023-11-19T06:24:17;1.70;;;1.60;;
3299;SDS011;1662;49.310;8.134;2023-11-19T06:26:43;1.57;;;1.10;;
3299;SDS011;1662;49.310;8.134;2023-11-19T06:29:09;2.53;;;1.50;;
3299;SDS011;1662;49.310;8.134;2023-11-19T06:31:34;1.93;;;1.50;;
3299;SDS011;1662;49.310;8.134;2023-11-19T06:34:00;1.03;;;1.03;;
3299;SDS011;1662;49.310;8.134;2023-11-19T06:36:25;1.20;;;1.20;;
3299;SDS011;1662;49.310;8.134;2023-11-19T06:38:52;1.47;;;1.40;;
3299;SDS011;1662;49.310;8.134;2023-11-19T06:41:18;1.93;;;1.17;;
3299;SDS011;1662;49.310;8.134;2023-11-19T06:43:46;1.23;;;1.10;;
3299;SDS011;1662;49.310;8.134;2023-11-19T06:46:15;1.30;;;1.30;;
3299;SDS011;1662;49.310;8.134;2023-11-19T06:48:42;1.53;;;1.30;;
3299;SDS011;1662;49.310;8.134;2023-11-19T06:51:09;1.50;;;1.40;;
3299;SDS011;1662;49.310;8.134;2023-11-19T06:53:35;1.80;;;1.70;;
3299;SDS011;1662;49.310;8.134;2023-11-19T06:56:04;2.37;;;1.30;;
3299;SDS011;1662;49.310;8.134;2023-11-19T06:58:40;1.23;;;1.23;;
3299;SDS011;1662;49.310;8.134;2023-11-19T07:01:06;1.73;;;1.43;;
3299;SDS011;1662;49.310;8.134;2023-11-19T07:03:33;3.10;;;1.57;;
3299;SDS011;1662;49.310;8.134;2023-11-19T07:06:00;1.40;;;1.20;;
3299;SDS011;1662;49.310;8.134;2023-11-19T07:08:25;2.07;;;1.70;;
3299;SDS011;1662;49.310;8.134;2023-11-19T07:10:51;8.03;;;2.50;;
3299;SDS011;1662;49.310;8.134;2023-11-19T07:13:18;1.50;;;1.50;;
3299;SDS011;1662;49.310;8.134;2023-11-19T07:15:46;1.60;;;1.50;;
3299;SDS011;1662;49.310;8.134;2023-11-19T07:18:12;1.63;;;1.57;;
3299;SDS011;1662;49.310;8.134;2023-11-19T07:20:38;3.10;;;1.30;;
3299;SDS011;1662;49.310;8.134;2023-11-19T07:23:07;1.10;;;1.00;;
3299;SDS011;1662;49.310;8.134;2023-11-19T07:25:33;1.17;;;1.17;;
3299;SDS011;1662;49.310;8.134;2023-11-19T07:28:02;1.47;;;1.20;;
3299;SDS011;1662;49.310;8.134;2023-11-19T07:30:29;2.10;;;1.20;;
3299;SDS011;1662;49.310;8.134;2023-11-19T07:32:55;1.77;;;0.87;;
3299;SDS011;1662;49.310;8.134;2023-11-19T07:35:20;1.77;;;1.67;;
3299;SDS011;1662;49.310;8.134;2023-11-19T07:37:46;1.40;;;1.37;;
3299;SDS011;1662;49.310;8.134;2023-11-19T07:40:12;1.53;;;1.40;;
3299;SDS011;1662;49.310;8.134;2023-11-19T07:42:39;2.70;;;1.50;;
3299;SDS011;1662;49.310;8.134;2023-11-19T07:45:05;2.63;;;1.90;;
3299;SDS011;1662;49.310;8.134;2023-11-19T07:47:32;2.03;;;1.77;;
3299;SDS011;1662;49.310;8.134;2023-11-19T07:49:57;2.10;;;1.90;;
3299;SDS011;1662;49.310;8.134;2023-11-19T07:52:23;1.70;;;1.60;;
3299;SDS011;1662;49.310;8.134;2023-11-19T07:54:48;3.40;;;1.90;;
3299;SDS011;1662;49.310;8.134;2023-11-19T07:57:14;2.33;;;1.90;;
3299;SDS011;1662;49.310;8.134;2023-11-19T07:59:39;4.90;;;1.87;;
3299;SDS011;1662;49.310;8.134;2023-11-19T08:02:05;2.63;;;1.90;;
3299;SDS011;1662;49.310;8.134;2023-11-19T08:04:31;2.73;;;2.37;;
3299;SDS011;1662;49.310;8.134;2023-11-19T08:06:56;2.30;;;2.20;;
3299;SDS011;1662;49.310;8.134;2023-11-19T08:09:22;2.70;;;1.80;;
3299;SDS011;1662;49.310;8.134;2023-11-19T08:11:48;3.20;;;1.97;;
3299;SDS011;1662;49.310;8.134;2023-11-19T08:14:14;8.57;;;2.13;;
3299;SDS011;1662;49.310;8.134;2023-11-19T08:16:40;4.10;;;2.07;;
3299;SDS011;1662;49.310;8.134;2023-11-19T08:19:08;3.20;;;1.90;;
3299;SDS011;1662;49.310;8.134;2023-11-19T08:21:36;2.17;;;2.07;;
3299;SDS011;1662;49.310;8.134;2023-11-19T08:24:01;2.40;;;2.20;;
3299;SDS011;1662;49.310;8.134;2023-11-19T08:26:27;2.53;;;1.57;;
3299;SDS011;1662;49.310;8.134;2023-11-19T08:28:52;6.00;;;1.57;;
3299;SDS011;1662;49.310;8.134;2023-11-19T08:31:18;2.20;;;2.00;;
3299;SDS011;1662;49.310;8.134;2023-11-19T08:33:44;1.90;;;1.80;;
3299;SDS011;1662;49.310;8.134;2023-11-19T08:36:15;2.60;;;1.60;;
3299;SDS011;1662;49.310;8.134;2023-11-19T08:38:41;2.07;;;1.67;;
3299;SDS011;1662;49.310;8.134;2023-11-19T08:41:10;5.47;;;2.00;;
3299;SDS011;1662;49.310;8.134;2023-11-19T08:43:35;1.63;;;1.53;;
3299;SDS011;1662;49.310;8.134;2023-11-19T08:46:01;1.43;;;1.43;;
3299;SDS011;1662;49.310;8.134;2023-11-19T08:48:26;1.40;;;1.30;;
3299;SDS011;1662;49.310;8.134;2023-11-19T08:50:52;1.53;;;1.43;;
3299;SDS011;1662;49.310;8.134;2023-11-19T08:53:17;2.50;;;1.83;;
3299;SDS011;1662;49.310;8.134;2023-11-19T08:55:43;2.33;;;1.73;;
3299;SDS011;1662;49.310;8.134;2023-11-19T08:58:08;1.57;;;1.47;;
3299;SDS011;1662;49.310;8.134;2023-11-19T09:00:34;3.17;;;2.13;;
3299;SDS011;1662;49.310;8.134;2023-11-19T09:03:00;2.50;;;1.90;;
3299;SDS011;1662;49.310;8.134;2023-11-19T09:05:25;3.13;;;2.30;;
3299;SDS011;1662;49.310;8.134;2023-11-19T09:07:51;1.90;;;1.73;;
3299;SDS011;1662;49.310;8.134;2023-11-19T09:10:17;3.20;;;1.83;;
3299;SDS011;1662;49.310;8.134;2023-11-19T09:12:43;4.80;;;2.13;;
3299;SDS011;1662;49.310;8.134;2023-11-19T09:15:08;2.00;;;1.80;;
3299;SDS011;1662;49.310;8.134;2023-11-19T09:17:35;2.00;;;1.90;;
3299;SDS011;1662;49.310;8.134;2023-11-19T09:20:01;1.70;;;1.60;;
3299;SDS011;1662;49.310;8.134;2023-11-19T09:22:27;3.63;;;1.70;;
3299;SDS011;1662;49.310;8.134;2023-11-19T09:24:54;2.57;;;2.03;;
3299;SDS011;1662;49.310;8.134;2023-11-19T09:27:20;2.30;;;2.20;;
3299;SDS011;1662;49.310;8.134;2023-11-19T09:29:46;2.37;;;2.03;;
3299;SDS011;1662;49.310;8.134;2023-11-19T09:32:14;2.00;;;1.90;;
3299;SDS011;1662;49.310;8.134;2023-11-19T09:34:39;4.73;;;2.40;;
3299;SDS011;1662;49.310;8.134;2023-11-19T09:37:05;1.70;;;1.60;;
3299;SDS011;1662;49.310;8.134;2023-11-19T09:39:33;1.80;;;1.70;;
3299;SDS011;1662;49.310;8.134;2023-11-19T09:41:58;1.83;;;1.73;;
3299;SDS011;1662;49.310;8.134;2023-11-19T09:44:26;2.30;;;1.60;;
3299;SDS011;1662;49.310;8.134;2023-11-19T09:46:54;2.77;;;1.80;;
3299;SDS011;1662;49.310;8.134;2023-11-19T09:49:23;3.20;;;1.80;;
3299;SDS011;1662;49.310;8.134;2023-11-19T09:51:52;1.57;;;1.30;;
3299;SDS011;1662;49.310;8.134;2023-11-19T09:54:17;1.90;;;1.70;;
3299;SDS011;1662;49.310;8.134;2023-11-19T09:56:43;3.20;;;2.20;;
3299;SDS011;1662;49.310;8.134;2023-11-19T09:59:09;2.50;;;1.50;;
3299;SDS011;1662;49.310;8.134;2023-11-19T10:01:35;1.73;;;1.63;;
3299;SDS011;1662;49.310;8.134;2023-11-19T10:04:05;2.20;;;1.80;;
3299;SDS011;1662;49.310;8.134;2023-11-19T10:06:32;1.97;;;1.77;;
3299;SDS011;1662;49.310;8.134;2023-11-19T10:09:00;2.90;;;1.30;;
3299;SDS011;1662;49.310;8.134;2023-11-19T10:11:28;2.27;;;1.70;;
3299;SDS011;1662;49.310;8.134;2023-11-19T10:13:56;1.60;;;1.50;;
3299;SDS011;1662;49.310;8.134;2023-11-19T10:16:27;3.70;;;1.50;;
3299;SDS011;1662;49.310;8.134;2023-11-19T10:18:55;3.43;;;1.67;;
3299;SDS011;1662;49.310;8.134;2023-11-19T10:21:21;2.83;;;1.50;;
3299;SDS011;1662;49.310;8.134;2023-11-19T10:23:47;1.37;;;1.27;;
3299;SDS011;1662;49.310;8.134;2023-11-19T10:26:14;1.80;;;1.60;;
3299;SDS011;1662;49.310;8.134;2023-11-19T10:28:39;2.30;;;1.53;;
3299;SDS011;1662;49.310;8.134;2023-11-19T10:31:14;2.50;;;1.57;;
3299;SDS011;1662;49.310;8.134;2023-11-19T10:33:43;3.03;;;1.50;;
3299;SDS011;1662;49.310;8.134;2023-11-19T10:36:10;2.10;;;1.70;;
3299;SDS011;1662;49.310;8.134;2023-11-19T10:38:37;2.80;;;2.20;;
3299;SDS011;1662;49.310;8.134;2023-11-19T10:41:03;4.13;;;1.60;;
3299;SDS011;1662;49.310;8.134;2023-11-19T10:43:30;3.87;;;2.27;;
3299;SDS011;1662;49.310;8.134;2023-11-19T10:46:09;1.20;;;1.20;;
3299;SDS011;1662;49.310;8.134;2023-11-19T10:48:36;5.37;;;1.40;;
3299;SDS011;1662;49.310;8.134;2023-11-19T10:51:06;1.77;;;1.70;;
3299;SDS011;1662;49.310;8.134;2023-11-19T10:53:36;2.40;;;2.00;;
3299;SDS011;1662;49.310;8.134;2023-11-19T10:56:06;1.70;;;1.60;;
3299;SDS011;1662;49.310;8.134;2023-11-19T10:58:35;1.90;;;1.53;;
3299;SDS011;1662;49.310;8.134;2023-11-19T11:01:07;1.47;;;1.30;;
3299;SDS011;1662;49.310;8.134;2023-11-19T11:03:41;3.73;;;2.07;;
3299;SDS011;1662;49.310;8.134;2023-11-19T11:06:10;1.77;;;1.30;;
3299;SDS011;1662;49.310;8.134;2023-11-19T11:08:38;2.13;;;1.80;;
3299;SDS011;1662;49.310;8.134;2023-11-19T11:11:07;1.47;;;1.37;;
3299;SDS011;1662;49.310;8.134;2023-11-19T11:13:35;3.90;;;1.67;;
3299;SDS011;1662;49.310;8.134;2023-11-19T11:16:04;2.37;;;1.67;;
3299;SDS011;1662;49.310;8.134;2023-11-19T11:18:32;6.03;;;1.60;;
3299;SDS011;1662;49.310;8.134;2023-11-19T11:20:58;5.70;;;2.13;;
3299;SDS011;1662;49.310;8.134;2023-11-19T11:29:46;1.47;;;1.37;;
3299;SDS011;1662;49.310;8.134;2023-11-19T11:35:30;6.37;;;2.00;;
3299;SDS011;1662;49.310;8.134;2023-11-19T11:38:14;2.00;;;1.17;;
3299;SDS011;1662;49.310;8.134;2023-11-19T11:40:43;2.17;;;1.57;;
3299;SDS011;1662;49.310;8.134;2023-11-19T11:43:45;3.37;;;1.77;;
3299;SDS011;1662;49.310;8.134;2023-11-19T11:49:07;2.13;;;1.87;;
3299;SDS011;1662;49.310;8.134;2023-11-19T11:57:06;2.40;;;1.63;;
3299;SDS011;1662;49.310;8.134;2023-11-19T11:59:37;2.50;;;1.50;;
3299;SDS011;1662;49.310;8.134;2023-11-19T12:02:16;1.43;;;1.33;;
3299;SDS011;1662;49.310;8.134;2023-11-19T12:04:46;1.43;;;1.37;;
3299;SDS011;1662;49.310;8.134;2023-11-19T12:07:14;1.50;;;1.40;;
3299;SDS011;1662;49.310;8.134;2023-11-19T12:09:47;3.30;;;2.10;;
3299;SDS011;1662;49.310;8.134;2023-11-19T12:12:22;5.33;;;1.57;;
3299;SDS011;1662;49.310;8.134;2023-11-19T12:15:00;4.13;;;2.07;;
3299;SDS011;1662;49.310;8.134;2023-11-19T12:20:02;1.43;;;1.43;;
3299;SDS011;1662;49.310;8.134;2023-11-19T12:22:30;1.53;;;1.43;;
3299;SDS011;1662;49.310;8.134;2023-11-19T12:24:56;1.90;;;1.50;;
3299;SDS011;1662;49.310;8.134;2023-11-19T12:27:22;6.53;;;1.43;;
3299;SDS011;1662;49.310;8.134;2023-11-19T12:29:48;1.73;;;1.30;;
3299;SDS011;1662;49.310;8.134;2023-11-19T12:32:14;1.93;;;1.60;;
3299;SDS011;1662;49.310;8.134;2023-11-19T12:34:40;3.87;;;1.50;;
3299;SDS011;1662;49.310;8.134;2023-11-19T12:37:05;1.70;;;1.60;;
3299;SDS011;1662;49.310;8.134;2023-11-19T12:39:31;1.90;;;1.60;;
3299;SDS011;1662;49.310;8.134;2023-11-19T12:41:57;1.50;;;1.40;;
3299;SDS011;1662;49.310;8.134;2023-11-19T12:44:26;1.70;;;1.43;;
3299;SDS011;1662;49.310;8.134;2023-11-19T12:47:10;1.40;;;1.30;;
3299;SDS011;1662;49.310;8.134;2023-11-19T12:49:36;2.80;;;1.80;;
3299;SDS011;1662;49.310;8.134;2023-11-19T12:52:10;2.20;;;1.53;;
3299;SDS011;1662;49.310;8.134;2023-11-19T12:54:39;1.73;;;1.20;;
3299;SDS011;1662;49.310;8.134;2023-11-19T12:57:05;2.00;;;1.53;;
3299;SDS011;1662;49.310;8.134;2023-11-19T12:59:31;1.63;;;1.40;;
3299;SDS011;1662;49.310;8.134;2023-11-19T13:01:57;9.17;;;2.03;;
3299;SDS011;1662;49.310;8.134;2023-11-19T13:04:30;1.87;;;1.23;;
3299;SDS011;1662;49.310;8.134;2023-11-19T13:07:00;1.50;;;1.40;;
3299;SDS011;1662;49.310;8.134;2023-11-19T13:09:29;3.00;;;1.60;;
3299;SDS011;1662;49.310;8.134;2023-11-19T13:11:55;3.70;;;1.30;;
3299;SDS011;1662;49.310;8.134;2023-11-19T13:14:22;5.23;;;2.53;;
3299;SDS011;1662;49.310;8.134;2023-11-19T13:16:48;5.53;;;1.87;;
3299;SDS011;1662;49.310;8.134;2023-11-19T13:19:14;2.03;;;1.50;;
3299;SDS011;1662;49.310;8.134;2023-11-19T13:21:44;2.67;;;1.53;;
3299;SDS011;1662;49.310;8.134;2023-11-19T13:24:13;2.00;;;1.30;;
3299;SDS011;1662;49.310;8.134;2023-11-19T13:26:39;2.87;;;1.40;;
3299;SDS011;1662;49.310;8.134;2023-11-19T13:29:05;2.10;;;1.47;;
3299;SDS011;1662;49.310;8.134;2023-11-19T13:31:30;1.57;;;1.57;;
3299;SDS011;1662;49.310;8.134;2023-11-19T13:33:56;4.57;;;1.70;;
3299;SDS011;1662;49.310;8.134;2023-11-19T13:36:23;1.43;;;1.33;;
3299;SDS011;1662;49.310;8.134;2023-11-19T13:38:49;2.40;;;1.30;;
3299;SDS011;1662;49.310;8.134;2023-11-19T13:41:15;6.37;;;2.10;;
3299;SDS011;1662;49.310;8.134;2023-11-19T13:43:40;3.50;;;1.53;;
3299;SDS011;1662;49.310;8.134;2023-11-19T13:46:06;4.13;;;1.50;;
3299;SDS011;1662;49.310;8.134;2023-11-19T13:48:36;2.00;;;1.37;;
3299;SDS011;1662;49.310;8.134;2023-11-19T13:51:02;2.03;;;1.00;;
3299;SDS011;1662;49.310;8.134;2023-11-19T13:53:28;5.00;;;1.77;;
3299;SDS011;1662;49.310;8.134;2023-11-19T13:55:53;3.63;;;1.50;;
3299;SDS011;1662;49.310;8.134;2023-11-19T13:58:19;2.00;;;1.80;;
3299;SDS011;1662;49.310;8.134;2023-11-19T14:00:44;2.17;;;2.03;;
3299;SDS011;1662;49.310;8.134;2023-11-19T14:03:10;3.90;;;2.60;;
3299;SDS011;1662;49.310;8.134;2023-11-19T14:05:36;5.63;;;3.67;;
3299;SDS011;1662;49.310;8.134;2023-11-19T14:08:02;3.53;;;2.70;;
3299;SDS011;1662;49.310;8.134;2023-11-19T14:10:36;3.90;;;3.63;;
3299;SDS011;1662;49.310;8.134;2023-11-19T14:13:04;7.93;;;3.37;;
3299;SDS011;1662;49.310;8.134;2023-11-19T14:15:29;2.93;;;1.90;;
3299;SDS011;1662;49.310;8.134;2023-11-19T14:17:55;2.83;;;1.40;;
3299;SDS011;1662;49.310;8.134;2023-11-19T14:20:20;6.20;;;3.20;;
3299;SDS011;1662;49.310;8.134;2023-11-19T14:22:46;2.83;;;1.23;;
3299;SDS011;1662;49.310;8.134;2023-11-19T14:25:15;2.00;;;1.17;;
3299;SDS011;1662;49.310;8.134;2023-11-19T14:27:41;2.10;;;1.20;;
3299;SDS011;1662;49.310;8.134;2023-11-19T14:30:11;1.70;;;1.60;;
3299;SDS011;1662;49.310;8.134;2023-11-19T14:32:38;3.83;;;1.83;;
3299;SDS011;1662;49.310;8.134;2023-11-19T14:35:05;1.57;;;1.47;;
3299;SDS011;1662;49.310;8.134;2023-11-19T14:37:32;2.50;;;1.50;;
3299;SDS011;1662;49.310;8.134;2023-11-19T14:39:58;2.23;;;1.90;;
3299;SDS011;1662;49.310;8.134;2023-11-19T14:42:24;6.43;;;1.40;;
3299;SDS011;1662;49.310;8.134;2023-11-19T14:44:52;2.07;;;1.40;;
3299;SDS011;1662;49.310;8.134;2023-11-19T14:47:19;2.43;;;1.53;;
3299;SDS011;1662;49.310;8.134;2023-11-19T14:49:48;2.30;;;1.40;;
3299;SDS011;1662;49.310;8.134;2023-11-19T14:52:13;2.70;;;1.80;;
3299;SDS011;1662;49.310;8.134;2023-11-19T14:54:39;4.43;;;2.07;;
3299;SDS011;1662;49.310;8.134;2023-11-19T14:57:05;3.37;;;2.00;;
3299;SDS011;1662;49.310;8.134;2023-11-19T14:59:33;4.80;;;1.97;;
3299;SDS011;1662;49.310;8.134;2023-11-19T15:01:59;2.27;;;1.50;;
3299;SDS011;1662;49.310;8.134;2023-11-19T15:04:25;4.13;;;1.80;;
3299;SDS011;1662;49.310;8.134;2023-11-19T15:06:52;2.50;;;1.60;;
3299;SDS011;1662;49.310;8.134;2023-11-19T15:09:21;2.80;;;1.50;;
3299;SDS011;1662;49.310;8.134;2023-11-19T15:11:49;3.13;;;1.70;;
3299;SDS011;1662;49.310;8.134;2023-11-19T15:14:15;2.90;;;1.67;;
3299;SDS011;1662;49.310;8.134;2023-11-19T15:16:43;3.40;;;2.47;;
3299;SDS011;1662;49.310;8.134;2023-11-19T15:19:10;1.90;;;1.40;;
3299;SDS011;1662;49.310;8.134;2023-11-19T15:21:37;4.30;;;1.70;;
3299;SDS011;1662;49.310;8.134;2023-11-19T15:24:03;4.40;;;2.00;;
3299;SDS011;1662;49.310;8.134;2023-11-19T15:26:32;5.83;;;1.70;;
3299;SDS011;1662;49.310;8.134;2023-11-19T15:28:58;3.50;;;2.20;;
3299;SDS011;1662;49.310;8.134;2023-11-19T15:31:24;1.60;;;1.50;;
3299;SDS011;1662;49.310;8.134;2023-11-19T15:33:52;3.83;;;1.40;;